sensor_id;sensor_type;location;lat;lon;timestamp;temperature;humidity
16243;DHT22;11719;51.052;6.982;2022-10-23T00:01:22;18.70;99.90
16243;DHT22;11719;51.052;6.982;2022-10-23T00:03:55;18.70;99.90
16243;DHT22;11719;51.052;6.982;2022-10-23T00:06:23;18.60;99.90
16243;DHT22;11719;51.052;6.982;2022-10-23T00:08:49;18.50;99.90
16243;DHT22;11719;51.052;6.982;2022-10-23T00:11:17;18.40;99.90
16243;DHT22;11719;51.052;6.982;2022-10-23T00:13:46;18.30;99.90
16243;DHT22;11719;51.052;6.982;2022-10-23T00:16:12;18.30;99.90
16243;DHT22;11719;51.052;6.982;2022-10-23T00:18:38;18.20;99.90
16243;DHT22;11719;51.052;6.982;2022-10-23T00:21:06;18.20;99.90
16243;DHT22;11719;51.052;6.982;2022-10-23T00:23:33;18.20;99.90
16243;DHT22;11719;51.052;6.982;2022-10-23T00:25:59;18.30;99.90
16243;DHT22;11719;51.052;6.982;2022-10-23T00:28:26;18.30;99.90
16243;DHT22;11719;51.052;6.982;2022-10-23T00:30:51;18.30;99.90
16243;DHT22;11719;51.052;6.982;2022-10-23T00:33:17;18.30;99.90
16243;DHT22;11719;51.052;6.982;2022-10-23T00:35:43;18.40;99.90
16243;DHT22;11719;51.052;6.982;2022-10-23T00:38:09;18.30;99.90
16243;DHT22;11719;51.052;6.982;2022-10-23T00:40:36;18.30;99.90
16243;DHT22;11719;51.052;6.982;2022-10-23T00:43:03;18.30;99.90
16243;DHT22;11719;51.052;6.982;2022-10-23T00:45:32;18.50;99.90
16243;DHT22;11719;51.052;6.982;2022-10-23T00:47:59;18.60;99.90
16243;DHT22;11719;51.052;6.982;2022-10-23T00:50:29;18.80;99.90
16243;DHT22;11719;51.052;6.982;2022-10-23T00:52:59;18.90;99.90
16243;DHT22;11719;51.052;6.982;2022-10-23T00:55:27;18.90;99.90
16243;DHT22;11719;51.052;6.982;2022-10-23T00:57:54;19.00;99.90
16243;DHT22;11719;51.052;6.982;2022-10-23T01:00:30;19.10;99.90
16243;DHT22;11719;51.052;6.982;2022-10-23T01:03:05;19.30;99.90
16243;DHT22;11719;51.052;6.982;2022-10-23T01:05:39;19.30;99.90
16243;DHT22;11719;51.052;6.982;2022-10-23T01:08:19;19.30;99.90
16243;DHT22;11719;51.052;6.982;2022-10-23T01:10:58;19.30;99.90
16243;DHT22;11719;51.052;6.982;2022-10-23T01:16:27;19.30;99.90
16243;DHT22;11719;51.052;6.982;2022-10-23T01:28:12;19.00;99.90
16243;DHT22;11719;51.052;6.982;2022-10-23T01:30:43;18.90;99.90
16243;DHT22;11719;51.052;6.982;2022-10-23T01:33:12;18.90;99.90
16243;DHT22;11719;51.052;6.982;2022-10-23T01:35:49;19.00;99.90
16243;DHT22;11719;51.052;6.982;2022-10-23T01:38:28;19.00;99.90
16243;DHT22;11719;51.052;6.982;2022-10-23T01:41:52;19.10;99.90
16243;DHT22;11719;51.052;6.982;2022-10-23T01:44:31;19.10;99.90
16243;DHT22;11719;51.052;6.982;2022-10-23T01:47:01;19.00;99.90
16243;DHT22;11719;51.052;6.982;2022-10-23T01:49:29;18.90;99.90
16243;DHT22;11719;51.052;6.982;2022-10-23T01:51:58;18.90;99.90
16243;DHT22;11719;51.052;6.982;2022-10-23T01:54:29;19.00;99.90
16243;DHT22;11719;51.052;6.982;2022-10-23T01:56:57;19.10;99.90
16243;DHT22;11719;51.052;6.982;2022-10-23T01:59:28;19.20;99.90
16243;DHT22;11719;51.052;6.982;2022-10-23T02:01:58;19.30;99.90
16243;DHT22;11719;51.052;6.982;2022-10-23T02:04:33;19.30;99.90
16243;DHT22;11719;51.052;6.982;2022-10-23T02:07:01;19.30;99.90
16243;DHT22;11719;51.052;6.982;2022-10-23T02:09:27;19.40;99.90
16243;DHT22;11719;51.052;6.982;2022-10-23T02:12:02;19.60;99.90
16243;DHT22;11719;51.052;6.982;2022-10-23T02:14:52;19.60;99.90
16243;DHT22;11719;51.052;6.982;2022-10-23T02:20:39;19.80;99.90
16243;DHT22;11719;51.052;6.982;2022-10-23T02:23:12;19.80;99.90
16243;DHT22;11719;51.052;6.982;2022-10-23T02:25:58;19.90;99.90
16243;DHT22;11719;51.052;6.982;2022-10-23T02:28:41;19.90;99.90
16243;DHT22;11719;51.052;6.982;2022-10-23T02:31:12;19.90;99.90
16243;DHT22;11719;51.052;6.982;2022-10-23T02:33:40;19.90;99.90
16243;DHT22;11719;51.052;6.982;2022-10-23T02:36:07;20.00;99.90
16243;DHT22;11719;51.052;6.982;2022-10-23T02:38:38;20.00;99.90
16243;DHT22;11719;51.052;6.982;2022-10-23T02:41:40;20.00;99.90
16243;DHT22;11719;51.052;6.982;2022-10-23T02:53:19;20.00;99.90
16243;DHT22;11719;51.052;6.982;2022-10-23T02:55:59;20.10;99.90
16243;DHT22;11719;51.052;6.982;2022-10-23T02:58:54;20.00;99.90
16243;DHT22;11719;51.052;6.982;2022-10-23T03:01:28;19.90;99.90
16243;DHT22;11719;51.052;6.982;2022-10-23T03:04:02;19.90;99.90
16243;DHT22;11719;51.052;6.982;2022-10-23T03:06:31;19.90;99.90
16243;DHT22;11719;51.052;6.982;2022-10-23T03:09:00;19.80;99.90
16243;DHT22;11719;51.052;6.982;2022-10-23T03:11:28;19.80;99.90
16243;DHT22;11719;51.052;6.982;2022-10-23T03:13:54;19.80;99.90
16243;DHT22;11719;51.052;6.982;2022-10-23T03:16:20;19.90;99.90
16243;DHT22;11719;51.052;6.982;2022-10-23T03:18:46;19.90;99.90
16243;DHT22;11719;51.052;6.982;2022-10-23T03:21:11;20.00;99.90
16243;DHT22;11719;51.052;6.982;2022-10-23T03:23:37;20.00;99.90
16243;DHT22;11719;51.052;6.982;2022-10-23T03:26:04;20.10;99.90
16243;DHT22;11719;51.052;6.982;2022-10-23T03:28:30;20.10;99.90
16243;DHT22;11719;51.052;6.982;2022-10-23T03:30:55;20.10;99.90
16243;DHT22;11719;51.052;6.982;2022-10-23T03:33:21;20.10;99.90
16243;DHT22;11719;51.052;6.982;2022-10-23T03:35:47;20.20;99.90
16243;DHT22;11719;51.052;6.982;2022-10-23T03:38:14;20.20;99.90
16243;DHT22;11719;51.052;6.982;2022-10-23T03:40:41;20.20;99.90
16243;DHT22;11719;51.052;6.982;2022-10-23T03:43:07;20.20;99.90
16243;DHT22;11719;51.052;6.982;2022-10-23T03:45:33;20.10;99.90
16243;DHT22;11719;51.052;6.982;2022-10-23T03:47:59;20.10;99.90
16243;DHT22;11719;51.052;6.982;2022-10-23T03:50:24;20.00;99.90
16243;DHT22;11719;51.052;6.982;2022-10-23T03:52:50;19.70;99.90
16243;DHT22;11719;51.052;6.982;2022-10-23T03:55:16;19.40;99.90
16243;DHT22;11719;51.052;6.982;2022-10-23T03:57:42;19.20;99.90
16243;DHT22;11719;51.052;6.982;2022-10-23T04:00:08;19.20;99.90
16243;DHT22;11719;51.052;6.982;2022-10-23T04:02:34;19.20;99.90
16243;DHT22;11719;51.052;6.982;2022-10-23T04:05:00;19.20;99.90
16243;DHT22;11719;51.052;6.982;2022-10-23T04:07:26;19.00;99.90
16243;DHT22;11719;51.052;6.982;2022-10-23T04:09:51;19.00;99.90
16243;DHT22;11719;51.052;6.982;2022-10-23T04:12:17;19.00;99.90
16243;DHT22;11719;51.052;6.982;2022-10-23T04:14:43;19.00;99.90
16243;DHT22;11719;51.052;6.982;2022-10-23T04:17:09;19.10;99.90
16243;DHT22;11719;51.052;6.982;2022-10-23T04:19:35;19.30;99.90
16243;DHT22;11719;51.052;6.982;2022-10-23T04:22:00;19.30;99.90
16243;DHT22;11719;51.052;6.982;2022-10-23T04:24:26;19.20;99.90
16243;DHT22;11719;51.052;6.982;2022-10-23T04:26:52;19.20;99.90
16243;DHT22;11719;51.052;6.982;2022-10-23T04:29:18;19.30;99.90
16243;DHT22;11719;51.052;6.982;2022-10-23T04:31:47;19.40;99.90
16243;DHT22;11719;51.052;6.982;2022-10-23T04:34:12;19.50;99.90
16243;DHT22;11719;51.052;6.982;2022-10-23T04:36:38;19.60;99.90
16243;DHT22;11719;51.052;6.982;2022-10-23T04:39:04;19.50;99.90
16243;DHT22;11719;51.052;6.982;2022-10-23T04:41:30;19.60;99.90
16243;DHT22;11719;51.052;6.982;2022-10-23T04:43:56;19.60;99.90
16243;DHT22;11719;51.052;6.982;2022-10-23T04:46:22;19.70;99.90
16243;DHT22;11719;51.052;6.982;2022-10-23T04:48:48;19.80;99.90
16243;DHT22;11719;51.052;6.982;2022-10-23T04:51:14;19.70;99.90
16243;DHT22;11719;51.052;6.982;2022-10-23T04:53:39;19.60;99.90
16243;DHT22;11719;51.052;6.982;2022-10-23T04:56:05;19.50;99.90
16243;DHT22;11719;51.052;6.982;2022-10-23T04:58:31;19.50;99.90
16243;DHT22;11719;51.052;6.982;2022-10-23T05:00:57;19.40;99.90
16243;DHT22;11719;51.052;6.982;2022-10-23T05:03:25;19.30;99.90
16243;DHT22;11719;51.052;6.982;2022-10-23T05:05:52;19.30;99.90
16243;DHT22;11719;51.052;6.982;2022-10-23T05:08:20;19.40;99.90
16243;DHT22;11719;51.052;6.982;2022-10-23T05:10:47;19.40;99.90
16243;DHT22;11719;51.052;6.982;2022-10-23T05:13:15;19.50;99.90
16243;DHT22;11719;51.052;6.982;2022-10-23T05:15:47;19.50;99.90
16243;DHT22;11719;51.052;6.982;2022-10-23T05:18:33;19.50;99.90
16243;DHT22;11719;51.052;6.982;2022-10-23T05:21:10;19.30;99.90
16243;DHT22;11719;51.052;6.982;2022-10-23T05:23:40;19.30;99.90
16243;DHT22;11719;51.052;6.982;2022-10-23T05:26:07;19.30;99.90
16243;DHT22;11719;51.052;6.982;2022-10-23T05:28:33;19.40;99.90
16243;DHT22;11719;51.052;6.982;2022-10-23T05:31:01;19.50;99.90
16243;DHT22;11719;51.052;6.982;2022-10-23T05:33:29;19.60;99.90
16243;DHT22;11719;51.052;6.982;2022-10-23T05:35:57;19.70;99.90
16243;DHT22;11719;51.052;6.982;2022-10-23T05:38:24;19.80;99.90
16243;DHT22;11719;51.052;6.982;2022-10-23T05:40:52;19.80;99.90
16243;DHT22;11719;51.052;6.982;2022-10-23T05:43:17;19.90;99.90
16243;DHT22;11719;51.052;6.982;2022-10-23T05:45:43;19.90;99.90
16243;DHT22;11719;51.052;6.982;2022-10-23T05:48:09;19.90;99.90
16243;DHT22;11719;51.052;6.982;2022-10-23T05:50:35;19.90;99.90
16243;DHT22;11719;51.052;6.982;2022-10-23T05:53:02;19.90;99.90
16243;DHT22;11719;51.052;6.982;2022-10-23T05:55:28;19.70;99.90
16243;DHT22;11719;51.052;6.982;2022-10-23T05:57:53;19.60;99.90
16243;DHT22;11719;51.052;6.982;2022-10-23T06:00:19;19.60;99.90
16243;DHT22;11719;51.052;6.982;2022-10-23T06:02:45;19.50;99.90
16243;DHT22;11719;51.052;6.982;2022-10-23T06:05:11;19.30;99.90
16243;DHT22;11719;51.052;6.982;2022-10-23T06:07:37;19.20;99.90
16243;DHT22;11719;51.052;6.982;2022-10-23T06:10:04;19.20;99.90
16243;DHT22;11719;51.052;6.982;2022-10-23T06:12:31;19.30;99.90
16243;DHT22;11719;51.052;6.982;2022-10-23T06:14:57;19.50;99.90
16243;DHT22;11719;51.052;6.982;2022-10-23T06:17:23;19.60;99.90
16243;DHT22;11719;51.052;6.982;2022-10-23T06:19:49;19.70;99.90
16243;DHT22;11719;51.052;6.982;2022-10-23T06:22:15;19.80;99.90
16243;DHT22;11719;51.052;6.982;2022-10-23T06:24:41;19.80;99.90
16243;DHT22;11719;51.052;6.982;2022-10-23T06:27:06;19.90;99.90
16243;DHT22;11719;51.052;6.982;2022-10-23T06:29:32;20.00;99.90
16243;DHT22;11719;51.052;6.982;2022-10-23T06:31:58;20.00;99.90
16243;DHT22;11719;51.052;6.982;2022-10-23T06:34:23;20.00;99.90
16243;DHT22;11719;51.052;6.982;2022-10-23T06:36:49;20.10;99.90
16243;DHT22;11719;51.052;6.982;2022-10-23T06:39:15;20.10;99.90
16243;DHT22;11719;51.052;6.982;2022-10-23T06:41:41;20.10;99.90
16243;DHT22;11719;51.052;6.982;2022-10-23T06:44:08;20.10;99.90
16243;DHT22;11719;51.052;6.982;2022-10-23T06:46:35;20.10;99.90
16243;DHT22;11719;51.052;6.982;2022-10-23T06:49:02;20.20;99.90
16243;DHT22;11719;51.052;6.982;2022-10-23T06:51:27;20.20;99.90
16243;DHT22;11719;51.052;6.982;2022-10-23T06:53:55;20.20;99.90
16243;DHT22;11719;51.052;6.982;2022-10-23T06:56:21;20.20;99.90
16243;DHT22;11719;51.052;6.982;2022-10-23T06:58:49;20.20;99.90
16243;DHT22;11719;51.052;6.982;2022-10-23T07:01:15;20.20;99.90
16243;DHT22;11719;51.052;6.982;2022-10-23T07:03:41;20.20;99.90
16243;DHT22;11719;51.052;6.982;2022-10-23T07:06:08;20.20;99.90
16243;DHT22;11719;51.052;6.982;2022-10-23T07:08:35;20.20;99.90
16243;DHT22;11719;51.052;6.982;2022-10-23T07:11:03;20.20;99.90
16243;DHT22;11719;51.052;6.982;2022-10-23T07:13:31;20.20;99.90
16243;DHT22;11719;51.052;6.982;2022-10-23T07:15:57;20.20;99.90
16243;DHT22;11719;51.052;6.982;2022-10-23T07:18:23;20.30;99.90
16243;DHT22;11719;51.052;6.982;2022-10-23T07:20:56;20.20;99.90
16243;DHT22;11719;51.052;6.982;2022-10-23T07:23:22;20.30;99.90
16243;DHT22;11719;51.052;6.982;2022-10-23T07:25:48;20.20;99.90
16243;DHT22;11719;51.052;6.982;2022-10-23T07:28:14;20.30;99.90
16243;DHT22;11719;51.052;6.982;2022-10-23T07:30:40;20.30;99.90
16243;DHT22;11719;51.052;6.982;2022-10-23T07:33:06;20.20;99.90
16243;DHT22;11719;51.052;6.982;2022-10-23T07:35:32;20.30;99.90
16243;DHT22;11719;51.052;6.982;2022-10-23T07:37:58;20.30;99.90
16243;DHT22;11719;51.052;6.982;2022-10-23T07:40:24;20.30;99.90
16243;DHT22;11719;51.052;6.982;2022-10-23T07:42:50;20.30;99.90
16243;DHT22;11719;51.052;6.982;2022-10-23T07:45:16;20.20;99.90
16243;DHT22;11719;51.052;6.982;2022-10-23T07:47:42;20.30;99.90
16243;DHT22;11719;51.052;6.982;2022-10-23T07:50:08;20.20;99.90
16243;DHT22;11719;51.052;6.982;2022-10-23T07:52:35;20.20;99.90
16243;DHT22;11719;51.052;6.982;2022-10-23T07:55:00;20.20;99.90
16243;DHT22;11719;51.052;6.982;2022-10-23T07:57:26;20.20;99.90
16243;DHT22;11719;51.052;6.982;2022-10-23T07:59:52;20.30;99.90
16243;DHT22;11719;51.052;6.982;2022-10-23T08:02:19;20.20;99.90
16243;DHT22;11719;51.052;6.982;2022-10-23T08:04:48;20.20;99.90
16243;DHT22;11719;51.052;6.982;2022-10-23T08:07:14;20.20;99.90
16243;DHT22;11719;51.052;6.982;2022-10-23T08:09:40;20.20;99.90
16243;DHT22;11719;51.052;6.982;2022-10-23T08:12:06;20.20;99.90
16243;DHT22;11719;51.052;6.982;2022-10-23T08:14:31;20.20;99.90
16243;DHT22;11719;51.052;6.982;2022-10-23T08:16:57;20.20;99.90
16243;DHT22;11719;51.052;6.982;2022-10-23T08:19:23;20.20;99.90
16243;DHT22;11719;51.052;6.982;2022-10-23T08:21:49;20.20;99.90
16243;DHT22;11719;51.052;6.982;2022-10-23T08:24:19;20.20;99.90
16243;DHT22;11719;51.052;6.982;2022-10-23T08:26:44;20.20;99.90
16243;DHT22;11719;51.052;6.982;2022-10-23T08:29:10;20.20;99.90
16243;DHT22;11719;51.052;6.982;2022-10-23T08:31:36;20.20;99.90
16243;DHT22;11719;51.052;6.982;2022-10-23T08:34:02;20.20;99.90
16243;DHT22;11719;51.052;6.982;2022-10-23T08:36:28;20.20;99.90
16243;DHT22;11719;51.052;6.982;2022-10-23T08:38:55;20.20;99.90
16243;DHT22;11719;51.052;6.982;2022-10-23T08:41:23;20.10;99.90
16243;DHT22;11719;51.052;6.982;2022-10-23T08:47:04;20.20;99.90
16243;DHT22;11719;51.052;6.982;2022-10-23T08:49:50;20.10;99.90
16243;DHT22;11719;51.052;6.982;2022-10-23T09:01:09;20.10;99.90
16243;DHT22;11719;51.052;6.982;2022-10-23T09:04:03;20.10;99.90
16243;DHT22;11719;51.052;6.982;2022-10-23T09:06:43;20.10;99.90
16243;DHT22;11719;51.052;6.982;2022-10-23T09:17:39;20.10;99.90
16243;DHT22;11719;51.052;6.982;2022-10-23T09:22:53;20.10;99.90
16243;DHT22;11719;51.052;6.982;2022-10-23T09:25:27;20.10;99.90
16243;DHT22;11719;51.052;6.982;2022-10-23T09:27:59;20.10;99.90
16243;DHT22;11719;51.052;6.982;2022-10-23T09:30:35;20.20;99.90
16243;DHT22;11719;51.052;6.982;2022-10-23T09:36:03;20.10;99.90
16243;DHT22;11719;51.052;6.982;2022-10-23T09:46:44;20.20;99.90
16243;DHT22;11719;51.052;6.982;2022-10-23T09:54:26;20.20;99.90
16243;DHT22;11719;51.052;6.982;2022-10-23T09:57:01;20.20;99.90
16243;DHT22;11719;51.052;6.982;2022-10-23T09:59:41;20.20;99.90
16243;DHT22;11719;51.052;6.982;2022-10-23T10:02:31;20.20;99.90
16243;DHT22;11719;51.052;6.982;2022-10-23T10:04:58;20.20;99.90
16243;DHT22;11719;51.052;6.982;2022-10-23T10:07:29;20.20;99.90
16243;DHT22;11719;51.052;6.982;2022-10-23T10:09:56;20.20;99.90
16243;DHT22;11719;51.052;6.982;2022-10-23T10:15:21;20.20;99.90
16243;DHT22;11719;51.052;6.982;2022-10-23T10:18:27;20.20;99.90
16243;DHT22;11719;51.052;6.982;2022-10-23T10:21:27;20.20;99.90
16243;DHT22;11719;51.052;6.982;2022-10-23T10:24:04;20.20;99.90
16243;DHT22;11719;51.052;6.982;2022-10-23T10:27:16;20.20;99.90
16243;DHT22;11719;51.052;6.982;2022-10-23T10:41:34;20.20;99.90
16243;DHT22;11719;51.052;6.982;2022-10-23T10:47:20;20.10;99.90
16243;DHT22;11719;51.052;6.982;2022-10-23T10:50:16;20.10;99.90
16243;DHT22;11719;51.052;6.982;2022-10-23T10:52:58;20.10;99.90
16243;DHT22;11719;51.052;6.982;2022-10-23T10:55:40;20.20;99.90
16243;DHT22;11719;51.052;6.982;2022-10-23T10:58:41;20.20;99.90
16243;DHT22;11719;51.052;6.982;2022-10-23T11:04:38;20.10;99.90
16243;DHT22;11719;51.052;6.982;2022-10-23T11:07:11;20.10;99.90
16243;DHT22;11719;51.052;6.982;2022-10-23T11:09:41;20.10;99.90
16243;DHT22;11719;51.052;6.982;2022-10-23T11:12:22;20.10;99.90
16243;DHT22;11719;51.052;6.982;2022-10-23T11:14:49;20.20;99.90
16243;DHT22;11719;51.052;6.982;2022-10-23T11:17:27;20.20;99.90
16243;DHT22;11719;51.052;6.982;2022-10-23T11:26:02;20.20;99.90
16243;DHT22;11719;51.052;6.982;2022-10-23T11:32:42;20.20;99.90
16243;DHT22;11719;51.052;6.982;2022-10-23T11:38:30;20.30;99.90
16243;DHT22;11719;51.052;6.982;2022-10-23T11:41:04;20.20;99.90
16243;DHT22;11719;51.052;6.982;2022-10-23T11:43:45;20.20;99.90
16243;DHT22;11719;51.052;6.982;2022-10-23T11:48:48;20.20;99.90
16243;DHT22;11719;51.052;6.982;2022-10-23T11:51:37;20.20;99.90
16243;DHT22;11719;51.052;6.982;2022-10-23T11:56:54;20.20;99.90
16243;DHT22;11719;51.052;6.982;2022-10-23T11:59:29;20.20;99.90
16243;DHT22;11719;51.052;6.982;2022-10-23T12:01:59;20.20;99.90
16243;DHT22;11719;51.052;6.982;2022-10-23T12:04:38;20.20;99.90
16243;DHT22;11719;51.052;6.982;2022-10-23T12:07:16;20.20;99.90
16243;DHT22;11719;51.052;6.982;2022-10-23T12:09:55;20.20;99.90
16243;DHT22;11719;51.052;6.982;2022-10-23T12:17:41;20.20;99.90
16243;DHT22;11719;51.052;6.982;2022-10-23T12:22:49;20.20;99.90
16243;DHT22;11719;51.052;6.982;2022-10-23T12:26:25;20.20;99.90
16243;DHT22;11719;51.052;6.982;2022-10-23T12:38:07;20.30;99.90
16243;DHT22;11719;51.052;6.982;2022-10-23T12:43:41;20.00;99.90
16243;DHT22;11719;51.052;6.982;2022-10-23T12:46:26;20.10;99.90
16243;DHT22;11719;51.052;6.982;2022-10-23T12:48:56;20.20;99.90
16243;DHT22;11719;51.052;6.982;2022-10-23T12:51:28;20.20;99.90
16243;DHT22;11719;51.052;6.982;2022-10-23T12:53:59;20.20;99.90
16243;DHT22;11719;51.052;6.982;2022-10-23T12:56:33;20.20;99.90
16243;DHT22;11719;51.052;6.982;2022-10-23T12:59:00;20.20;99.90
16243;DHT22;11719;51.052;6.982;2022-10-23T13:01:33;20.20;99.90
16243;DHT22;11719;51.052;6.982;2022-10-23T13:04:27;20.20;99.90
16243;DHT22;11719;51.052;6.982;2022-10-23T13:06:56;20.10;99.90
16243;DHT22;11719;51.052;6.982;2022-10-23T13:09:41;20.10;99.90
16243;DHT22;11719;51.052;6.982;2022-10-23T13:12:10;20.20;99.90
16243;DHT22;11719;51.052;6.982;2022-10-23T13:22:48;20.20;99.90
16243;DHT22;11719;51.052;6.982;2022-10-23T13:33:38;20.20;99.90
16243;DHT22;11719;51.052;6.982;2022-10-23T13:39:03;20.20;99.90
16243;DHT22;11719;51.052;6.982;2022-10-23T13:41:48;20.30;99.90
16243;DHT22;11719;51.052;6.982;2022-10-23T13:44:16;20.30;99.90
16243;DHT22;11719;51.052;6.982;2022-10-23T13:46:44;20.30;99.90
16243;DHT22;11719;51.052;6.982;2022-10-23T13:49:10;20.30;99.90
16243;DHT22;11719;51.052;6.982;2022-10-23T13:51:40;20.40;99.90
16243;DHT22;11719;51.052;6.982;2022-10-23T13:54:37;20.40;99.90
16243;DHT22;11719;51.052;6.982;2022-10-23T13:57:05;20.30;99.90
16243;DHT22;11719;51.052;6.982;2022-10-23T13:59:35;20.40;99.90
16243;DHT22;11719;51.052;6.982;2022-10-23T14:02:01;20.40;99.90
16243;DHT22;11719;51.052;6.982;2022-10-23T14:04:29;20.40;99.90
16243;DHT22;11719;51.052;6.982;2022-10-23T14:06:55;20.40;99.90
16243;DHT22;11719;51.052;6.982;2022-10-23T14:09:23;20.40;99.90
16243;DHT22;11719;51.052;6.982;2022-10-23T14:11:48;20.40;99.90
16243;DHT22;11719;51.052;6.982;2022-10-23T14:14:14;20.40;99.90
16243;DHT22;11719;51.052;6.982;2022-10-23T14:16:40;20.40;99.90
16243;DHT22;11719;51.052;6.982;2022-10-23T14:19:06;20.40;99.90
16243;DHT22;11719;51.052;6.982;2022-10-23T14:21:32;20.40;99.90
16243;DHT22;11719;51.052;6.982;2022-10-23T14:23:58;20.40;99.90
16243;DHT22;11719;51.052;6.982;2022-10-23T14:26:25;20.40;99.90
16243;DHT22;11719;51.052;6.982;2022-10-23T14:28:55;20.50;99.90
16243;DHT22;11719;51.052;6.982;2022-10-23T14:31:21;20.40;99.90
16243;DHT22;11719;51.052;6.982;2022-10-23T14:33:51;20.40;99.90
16243;DHT22;11719;51.052;6.982;2022-10-23T14:36:19;20.40;99.90
16243;DHT22;11719;51.052;6.982;2022-10-23T14:38:45;20.40;99.90
16243;DHT22;11719;51.052;6.982;2022-10-23T14:41:12;20.40;99.90
16243;DHT22;11719;51.052;6.982;2022-10-23T14:43:40;20.40;99.90
16243;DHT22;11719;51.052;6.982;2022-10-23T14:46:15;20.40;99.90
16243;DHT22;11719;51.052;6.982;2022-10-23T14:48:42;20.40;99.90
16243;DHT22;11719;51.052;6.982;2022-10-23T14:51:21;20.40;99.90
16243;DHT22;11719;51.052;6.982;2022-10-23T14:53:53;20.40;99.90
16243;DHT22;11719;51.052;6.982;2022-10-23T14:56:21;20.40;99.90
16243;DHT22;11719;51.052;6.982;2022-10-23T14:58:47;20.40;99.90
16243;DHT22;11719;51.052;6.982;2022-10-23T15:01:13;20.40;99.90
16243;DHT22;11719;51.052;6.982;2022-10-23T15:03:39;20.40;99.90
16243;DHT22;11719;51.052;6.982;2022-10-23T15:06:06;20.40;99.90
16243;DHT22;11719;51.052;6.982;2022-10-23T15:08:32;20.40;99.90
16243;DHT22;11719;51.052;6.982;2022-10-23T15:11:00;20.40;99.90
16243;DHT22;11719;51.052;6.982;2022-10-23T15:13:26;20.40;99.90
16243;DHT22;11719;51.052;6.982;2022-10-23T15:16:06;20.40;99.90
16243;DHT22;11719;51.052;6.982;2022-10-23T15:18:33;20.40;99.90
16243;DHT22;11719;51.052;6.982;2022-10-23T15:21:01;20.40;99.90
16243;DHT22;11719;51.052;6.982;2022-10-23T15:23:36;20.40;99.90
16243;DHT22;11719;51.052;6.982;2022-10-23T15:26:07;20.40;99.90
16243;DHT22;11719;51.052;6.982;2022-10-23T15:28:34;20.40;99.90
16243;DHT22;11719;51.052;6.982;2022-10-23T15:31:00;20.40;99.90
16243;DHT22;11719;51.052;6.982;2022-10-23T15:33:26;20.40;99.90
16243;DHT22;11719;51.052;6.982;2022-10-23T15:35:53;20.40;99.90
16243;DHT22;11719;51.052;6.982;2022-10-23T15:38:19;20.30;99.90
16243;DHT22;11719;51.052;6.982;2022-10-23T15:40:47;20.30;99.90
16243;DHT22;11719;51.052;6.982;2022-10-23T15:43:13;20.30;99.90
16243;DHT22;11719;51.052;6.982;2022-10-23T15:45:40;20.20;99.90
16243;DHT22;11719;51.052;6.982;2022-10-23T15:48:07;20.30;99.90
16243;DHT22;11719;51.052;6.982;2022-10-23T15:50:33;20.30;99.90
16243;DHT22;11719;51.052;6.982;2022-10-23T15:52:59;20.30;99.90
16243;DHT22;11719;51.052;6.982;2022-10-23T15:55:25;20.30;99.90
16243;DHT22;11719;51.052;6.982;2022-10-23T15:57:51;20.40;99.90
16243;DHT22;11719;51.052;6.982;2022-10-23T16:00:18;20.40;99.90
16243;DHT22;11719;51.052;6.982;2022-10-23T16:02:44;20.40;99.90
16243;DHT22;11719;51.052;6.982;2022-10-23T16:05:10;20.40;99.90
16243;DHT22;11719;51.052;6.982;2022-10-23T16:07:36;20.40;99.90
16243;DHT22;11719;51.052;6.982;2022-10-23T16:10:01;20.30;99.90
16243;DHT22;11719;51.052;6.982;2022-10-23T16:12:27;20.30;99.90
16243;DHT22;11719;51.052;6.982;2022-10-23T16:14:53;20.30;99.90
16243;DHT22;11719;51.052;6.982;2022-10-23T16:17:19;20.30;99.90
16243;DHT22;11719;51.052;6.982;2022-10-23T16:19:45;20.10;99.90
16243;DHT22;11719;51.052;6.982;2022-10-23T16:22:11;20.10;99.90
16243;DHT22;11719;51.052;6.982;2022-10-23T16:24:37;20.00;99.90
16243;DHT22;11719;51.052;6.982;2022-10-23T16:27:03;20.00;99.90
16243;DHT22;11719;51.052;6.982;2022-10-23T16:29:29;20.00;99.90
16243;DHT22;11719;51.052;6.982;2022-10-23T16:31:55;20.00;99.90
16243;DHT22;11719;51.052;6.982;2022-10-23T16:34:22;20.00;99.90
16243;DHT22;11719;51.052;6.982;2022-10-23T16:36:48;20.00;99.90
16243;DHT22;11719;51.052;6.982;2022-10-23T16:39:16;19.90;99.90
16243;DHT22;11719;51.052;6.982;2022-10-23T16:41:43;19.80;99.90
16243;DHT22;11719;51.052;6.982;2022-10-23T16:44:09;19.70;99.90
16243;DHT22;11719;51.052;6.982;2022-10-23T16:46:35;19.60;99.90
16243;DHT22;11719;51.052;6.982;2022-10-23T16:49:01;19.60;99.90
16243;DHT22;11719;51.052;6.982;2022-10-23T16:51:30;19.50;99.90
16243;DHT22;11719;51.052;6.982;2022-10-23T16:53:57;19.50;99.90
16243;DHT22;11719;51.052;6.982;2022-10-23T16:56:24;19.50;99.90
16243;DHT22;11719;51.052;6.982;2022-10-23T16:58:53;19.50;99.90
16243;DHT22;11719;51.052;6.982;2022-10-23T17:01:25;19.60;99.90
16243;DHT22;11719;51.052;6.982;2022-10-23T17:03:53;19.70;99.90
16243;DHT22;11719;51.052;6.982;2022-10-23T17:06:25;19.80;99.90
16243;DHT22;11719;51.052;6.982;2022-10-23T17:08:54;19.80;99.90
16243;DHT22;11719;51.052;6.982;2022-10-23T17:11:25;19.90;99.90
16243;DHT22;11719;51.052;6.982;2022-10-23T17:13:55;20.00;99.90
16243;DHT22;11719;51.052;6.982;2022-10-23T17:16:39;20.10;99.90
16243;DHT22;11719;51.052;6.982;2022-10-23T17:19:17;20.00;99.90
16243;DHT22;11719;51.052;6.982;2022-10-23T17:21:45;20.10;99.90
16243;DHT22;11719;51.052;6.982;2022-10-23T17:24:11;20.10;99.90
16243;DHT22;11719;51.052;6.982;2022-10-23T17:26:38;20.10;99.90
16243;DHT22;11719;51.052;6.982;2022-10-23T17:29:07;20.20;99.90
16243;DHT22;11719;51.052;6.982;2022-10-23T17:31:37;20.20;99.90
16243;DHT22;11719;51.052;6.982;2022-10-23T17:34:06;20.30;99.90
16243;DHT22;11719;51.052;6.982;2022-10-23T17:36:38;20.30;99.90
16243;DHT22;11719;51.052;6.982;2022-10-23T17:39:08;20.30;99.90
16243;DHT22;11719;51.052;6.982;2022-10-23T17:41:35;20.30;99.90
16243;DHT22;11719;51.052;6.982;2022-10-23T17:44:02;20.30;99.90
16243;DHT22;11719;51.052;6.982;2022-10-23T17:46:28;20.30;99.90
16243;DHT22;11719;51.052;6.982;2022-10-23T17:48:58;20.30;99.90
16243;DHT22;11719;51.052;6.982;2022-10-23T17:51:29;20.30;99.90
16243;DHT22;11719;51.052;6.982;2022-10-23T17:53:59;20.30;99.90
16243;DHT22;11719;51.052;6.982;2022-10-23T17:56:28;20.30;99.90
16243;DHT22;11719;51.052;6.982;2022-10-23T17:59:01;20.30;99.90
16243;DHT22;11719;51.052;6.982;2022-10-23T18:01:32;20.30;99.90
16243;DHT22;11719;51.052;6.982;2022-10-23T18:04:01;20.30;99.90
16243;DHT22;11719;51.052;6.982;2022-10-23T18:06:32;20.30;99.90
16243;DHT22;11719;51.052;6.982;2022-10-23T18:09:01;20.30;99.90
16243;DHT22;11719;51.052;6.982;2022-10-23T18:11:31;20.30;99.90